Pagrindinis puslapis
METAR-TAF:

METAR-TAF

Oro uostai :

Fairbanks, Aliaska, Jungtinės Amerikos Valstijos

platuma: 64-48-14N, ilguma: 147-52-34W, Aukštis: 132 m

Dabartinis oras

Ataskaita buvo paskelbta 56 minutes, ne 03:53 UTC
Ramus vėjas
Temperatūra -27°C
Drėgmė 69%
Slėgis 1021 hPa
Matomumas: 16.1 km
Giedras dangus

METAR: PAFA 290353Z 00000KT 10SM CLR M27/M31 A3016 RMK AO2 SLP234 T12721306

Laikas: 19:49 (04:49 UTC)

Prognozė

Ataskaita buvo paskelbta 5 valandos ir 17 minutes, ne 23:32 UTC
Prognozė galioja nuo 29 metu 00 UTC su 01 metu 06 UTC
Vėjas 3 kt iš Šiaurės/Šiaurės Rytų
Matomumas: 10 km
Giedras dangus

TAF: PAFA 282332Z 2900/0106 03003KT P6SM SKC

Orai ataskaitas ir orų prognozės (METAR, TAF).

turimą stotys yra geltonos ir raudonos taškus žemėlapyje.

Perkelti pele per norėdami pamatyti stoties vardą.

Tada spustelėkite, norėdami matyti oro stebėjimo ir prognozės.

Norėdami pakeisti žemėlapį: spustelėkite ant žalios mygtukų su juodo kryžiaus žemyn,; žalią mygtuką su brūkšneliu, jei norite nutolinti; arba žalių rodyklių gretimoms žemėlapius.


METAR-TAF: